createdAt,value
2019-04-10T00:00:04.592Z,-6.3
2019-04-10T00:00:55.469Z,-6.2
2019-04-10T00:01:46.347Z,-6.2
2019-04-10T00:02:37.631Z,-6.2
2019-04-10T00:03:33.504Z,-6.2
2019-04-10T00:04:25.185Z,-6.2
2019-04-10T00:05:16.121Z,-6.2
2019-04-10T00:06:06.999Z,-6.2
2019-04-10T00:07:08.293Z,-6.2
2019-04-10T00:07:53.676Z,-6.3
2019-04-10T00:08:44.569Z,-6.3
2019-04-10T00:09:35.440Z,-6.2
2019-04-10T00:10:26.302Z,-6.3
2019-04-10T00:11:17.181Z,-6.3
2019-04-10T00:12:08.051Z,-6.3
2019-04-10T00:12:58.919Z,-6.4
2019-04-10T00:13:49.820Z,-6.4
2019-04-10T00:14:44.952Z,-6.4
2019-04-10T00:15:35.912Z,-6.4
2019-04-10T00:16:27.742Z,-6.4
2019-04-10T00:17:18.683Z,-6.3
2019-04-10T00:18:09.559Z,-6.3
2019-04-10T00:19:00.453Z,-6.4
2019-04-10T00:19:51.898Z,-6.4
2019-04-10T00:20:42.841Z,-6.4
2019-04-10T00:21:33.709Z,-6.5
2019-04-10T00:22:24.574Z,-6.5
2019-04-10T00:23:15.443Z,-6.6
2019-04-10T00:24:06.362Z,-6.6
2019-04-10T00:24:57.238Z,-6.5
2019-04-10T00:25:48.761Z,-6.5
2019-04-10T00:26:39.714Z,-6.4
2019-04-10T00:27:30.590Z,-6.4
2019-04-10T00:28:21.459Z,-6.4
2019-04-10T00:29:12.351Z,-6.4
2019-04-10T00:30:03.226Z,-6.3
2019-04-10T00:30:54.093Z,-6.3
2019-04-10T00:31:45.016Z,-6.2
2019-04-10T00:32:36.233Z,-6.2
2019-04-10T00:33:27.161Z,-6.2
2019-04-10T00:34:18.058Z,-6.2
2019-04-10T00:35:08.922Z,-6.2
2019-04-10T00:35:59.792Z,-6.2
2019-04-10T00:36:51.272Z,-6.2
2019-04-10T00:37:46.032Z,-6.2
2019-04-10T00:38:37.868Z,-6.2
2019-04-10T00:39:28.857Z,-6.2
2019-04-10T00:40:19.728Z,-6.2
2019-04-10T00:41:10.607Z,-6.3
2019-04-10T00:42:01.472Z,-6.3
2019-04-10T00:42:52.346Z,-6.4
2019-04-10T00:43:43.486Z,-6.4
2019-04-10T00:44:35.389Z,-6.4
2019-04-10T00:45:27.141Z,-6.5
2019-04-10T00:46:18.094Z,-6.6
2019-04-10T00:47:08.968Z,-6.6
2019-04-10T00:48:03.701Z,-6.6
2019-04-10T00:48:54.614Z,-6.6
2019-04-10T00:49:46.113Z,-6.5
2019-04-10T00:50:37.079Z,-6.5
2019-04-10T00:51:27.955Z,-6.6
2019-04-10T00:52:19.739Z,-6.6
2019-04-10T00:53:11.244Z,-6.5
2019-04-10T00:54:02.170Z,-6.5
2019-04-10T00:54:53.219Z,-6.5
2019-04-10T00:55:44.157Z,-6.6
2019-04-10T00:56:35.115Z,-6.6
2019-04-10T00:57:25.992Z,-6.5
2019-04-10T00:58:16.871Z,-6.6
2019-04-10T00:59:08.798Z,-6.6
2019-04-10T01:00:02.552Z,-6.7
2019-04-10T01:00:53.419Z,-6.7
2019-04-10T01:01:44.346Z,-6.6
2019-04-10T01:02:35.218Z,-6.6
2019-04-10T01:03:26.093Z,-6.7
2019-04-10T01:04:18.109Z,-6.7
2019-04-10T01:05:09.109Z,-6.7
2019-04-10T01:05:59.989Z,-6.7
2019-04-10T01:06:50.862Z,-6.7
2019-04-10T01:07:44.136Z,-6.8
2019-04-10T01:08:35.554Z,-6.8
2019-04-10T01:09:26.497Z,-6.9
2019-04-10T01:10:17.809Z,-6.9
2019-04-10T01:11:08.774Z,-6.9
2019-04-10T01:11:59.649Z,-6.9
2019-04-10T01:12:50.524Z,-6.8
2019-04-10T01:13:41.405Z,-6.8
2019-04-10T01:14:32.302Z,-6.7
2019-04-10T01:15:23.173Z,-6.7
2019-04-10T01:16:14.044Z,-6.6
2019-04-10T01:17:04.913Z,-6.5
2019-04-10T01:17:56.889Z,-6.4
2019-04-10T01:18:47.910Z,-6.4
2019-04-10T01:19:39.734Z,-6.2
2019-04-10T01:20:31.316Z,-6.2
2019-04-10T01:21:22.237Z,-6.2
2019-04-10T01:22:17.023Z,-6.2
2019-04-10T01:23:07.985Z,-6.2
2019-04-10T01:23:59.414Z,-6.2
2019-04-10T01:24:50.408Z,-6.2
2019-04-10T01:25:41.275Z,-6.2
2019-04-10T01:26:32.142Z,-6.2
2019-04-10T01:27:23.614Z,-6.2
2019-04-10T01:28:14.574Z,-6.2
2019-04-10T01:29:05.445Z,-6.2
2019-04-10T01:29:56.316Z,-6.4
2019-04-10T01:30:47.213Z,-6.4
2019-04-10T01:31:39.324Z,-6.4
2019-04-10T01:32:30.294Z,-6.2
2019-04-10T01:33:21.167Z,-6.2
2019-04-10T01:34:12.032Z,-6.2
2019-04-10T01:35:02.934Z,-6.2
2019-04-10T01:35:54.313Z,-6.2
2019-04-10T01:36:45.980Z,-6.2
2019-04-10T01:37:48.263Z,-6.1
2019-04-10T01:38:33.504Z,-6
2019-04-10T01:39:24.411Z,-5.9
2019-04-10T01:40:15.310Z,-5.9
2019-04-10T01:41:06.175Z,-5.9
2019-04-10T01:41:57.051Z,-5.9
2019-04-10T01:42:59.762Z,-5.9
2019-04-10T01:43:46.846Z,-5.9
2019-04-10T01:44:38.561Z,-5.9
2019-04-10T01:45:29.531Z,-5.8
2019-04-10T01:46:20.397Z,-5.8
2019-04-10T01:47:11.268Z,-5.7
2019-04-10T01:48:02.145Z,-5.7
2019-04-10T01:48:53.343Z,-5.8
2019-04-10T01:49:44.295Z,-5.7
2019-04-10T01:50:35.196Z,-5.7
2019-04-10T01:51:26.063Z,-5.7
2019-04-10T01:52:17.194Z,-5.7
2019-04-10T01:53:09.138Z,-5.6
2019-04-10T01:54:00.561Z,-5.7
2019-04-10T01:54:51.505Z,-5.7
2019-04-10T01:55:42.973Z,-5.7
2019-04-10T01:56:36.104Z,-5.7
2019-04-10T01:57:28.101Z,-5.7
2019-04-10T01:58:19.232Z,-5.7
2019-04-10T01:59:10.212Z,-5.7
2019-04-10T02:00:01.087Z,-5.7
2019-04-10T02:00:52.075Z,-5.7
2019-04-10T02:01:43.042Z,-5.8
2019-04-10T02:02:33.909Z,-5.8
2019-04-10T02:03:25.693Z,-5.8
2019-04-10T02:04:16.631Z,-5.8
2019-04-10T02:05:08.141Z,-5.8
2019-04-10T02:05:59.109Z,-5.9
2019-04-10T02:06:49.979Z,-5.9
2019-04-10T02:07:40.844Z,-5.9
2019-04-10T02:08:31.938Z,-5.9
2019-04-10T02:09:23.421Z,-5.9
2019-04-10T02:10:14.332Z,-5.9
2019-04-10T02:11:05.253Z,-6
2019-04-10T02:11:56.501Z,-6
2019-04-10T02:12:47.444Z,-6
2019-04-10T02:13:39.307Z,-6.1
2019-04-10T02:14:30.242Z,-6.1
2019-04-10T02:15:21.711Z,-6.1
2019-04-10T02:16:12.698Z,-6.1
2019-04-10T02:17:04.245Z,-6.1
2019-04-10T02:17:55.211Z,-6.2
2019-04-10T02:18:46.084Z,-6.2
2019-04-10T02:19:36.957Z,-6.2
2019-04-10T02:20:27.829Z,-6.2
2019-04-10T02:21:19.887Z,-6.2
2019-04-10T02:22:11.693Z,-6.3
2019-04-10T02:23:03.777Z,-6.4
2019-04-10T02:23:54.691Z,-6.4
2019-04-10T02:24:45.563Z,-6.5
2019-04-10T02:25:36.916Z,-6.6
2019-04-10T02:26:27.878Z,-6.6
2019-04-10T02:27:18.744Z,-6.6
2019-04-10T02:28:09.612Z,-6.6
2019-04-10T02:29:01.621Z,-6.6
2019-04-10T02:29:52.603Z,-6.5
2019-04-10T02:30:43.864Z,-6.4
2019-04-10T02:31:36.156Z,-6.3
2019-04-10T02:32:28.324Z,-6.2
2019-04-10T02:33:19.707Z,-6.2
2019-04-10T02:34:10.638Z,-6.1
2019-04-10T02:35:06.653Z,-6.1
2019-04-10T02:35:59.332Z,-6
2019-04-10T02:36:50.770Z,-5.9
2019-04-10T02:37:43.279Z,-5.9
2019-04-10T02:38:48.732Z,-5.9
2019-04-10T02:39:37.827Z,-5.8
2019-04-10T02:40:25.841Z,-5.7
2019-04-10T02:41:17.336Z,-5.7
2019-04-10T02:42:08.385Z,-5.7
2019-04-10T02:43:00.763Z,-5.8
2019-04-10T02:43:51.686Z,-5.8
2019-04-10T02:44:43.977Z,-5.9
2019-04-10T02:45:36.302Z,-5.9
2019-04-10T02:46:29.155Z,-5.9
2019-04-10T02:47:21.090Z,-5.9
2019-04-10T02:48:12.270Z,-5.8
2019-04-10T02:49:04.033Z,-5.8
2019-04-10T02:49:56.602Z,-5.9
2019-04-10T02:50:48.732Z,-5.9
2019-04-10T02:51:41.192Z,-5.9
2019-04-10T02:52:32.916Z,-5.9
2019-04-10T02:53:25.461Z,-5.9
2019-04-10T02:54:17.532Z,-6
2019-04-10T02:55:09.822Z,-6.1
2019-04-10T02:56:03.051Z,-6.1
2019-04-10T02:56:54.824Z,-6.1
2019-04-10T02:57:49.802Z,-6.1
2019-04-10T02:58:40.810Z,-6.1
2019-04-10T02:59:33.381Z,-6.2
2019-04-10T03:00:30.312Z,-6.1
2019-04-10T03:01:21.378Z,-6.2
2019-04-10T03:02:13.873Z,-6.1
2019-04-10T03:03:05.533Z,-6.1
2019-04-10T03:03:56.791Z,-6.1
2019-04-10T03:04:49.050Z,-6.1
2019-04-10T03:05:40.559Z,-6.1
2019-04-10T03:06:33.459Z,-6
2019-04-10T03:07:25.808Z,-6
2019-04-10T03:08:17.335Z,-6.1
2019-04-10T03:09:25.731Z,-6.1
2019-04-10T03:10:14.827Z,-6.1
2019-04-10T03:11:03.701Z,-6.1
2019-04-10T03:11:55.461Z,-6.2
2019-04-10T03:12:48.130Z,-6.2
2019-04-10T03:13:39.397Z,-6.2
2019-04-10T03:14:30.284Z,-6.2
2019-04-10T03:15:21.161Z,-6.2
2019-04-10T03:16:13.840Z,-6.2
2019-04-10T03:17:05.916Z,-6.2
2019-04-10T03:17:56.869Z,-6.2
2019-04-10T03:18:47.739Z,-6.2
2019-04-10T03:19:38.612Z,-6.2
2019-04-10T03:20:30.056Z,-6.2
2019-04-10T03:21:21.016Z,-6.2
2019-04-10T03:22:12.425Z,-6.2
2019-04-10T03:23:03.457Z,-6.1
2019-04-10T03:23:54.326Z,-6.2
2019-04-10T03:24:45.194Z,-6.2
2019-04-10T03:25:37.084Z,-6.2
2019-04-10T03:26:28.049Z,-6.2
2019-04-10T03:27:19.206Z,-6.2
2019-04-10T03:28:11.073Z,-6.2
2019-04-10T03:29:03.160Z,-6.2
2019-04-10T03:29:54.112Z,-6.2
2019-04-10T03:30:46.567Z,-6.2
2019-04-10T03:31:39.116Z,-6.2
2019-04-10T03:32:36.209Z,-6.2
2019-04-10T03:33:30.372Z,-6.2
2019-04-10T03:34:22.869Z,-6.2
2019-04-10T03:35:14.535Z,-6.2
2019-04-10T03:36:05.481Z,-6.2
2019-04-10T03:36:56.351Z,-6.2
2019-04-10T03:37:47.250Z,-6.2
2019-04-10T03:38:48.430Z,-6.2
2019-04-10T03:39:35.859Z,-6.2
2019-04-10T03:40:27.118Z,-6.2
2019-04-10T03:41:18.059Z,-6.2
2019-04-10T03:42:08.933Z,-6.4
2019-04-10T03:42:59.829Z,-6.4
2019-04-10T03:43:50.899Z,-6.4
2019-04-10T03:44:42.964Z,-6.5
2019-04-10T03:45:34.728Z,-6.4
2019-04-10T03:46:25.720Z,-6.4
2019-04-10T03:47:19.599Z,-6.4
2019-04-10T03:48:11.677Z,-6.4
2019-04-10T03:49:03.161Z,-6.4
2019-04-10T03:49:54.112Z,-6.4
2019-04-10T03:50:44.982Z,-6.4
2019-04-10T03:51:36.619Z,-6.4
2019-04-10T03:52:27.540Z,-6.4
2019-04-10T03:53:18.461Z,-6.4
2019-04-10T03:54:09.334Z,-6.5
2019-04-10T03:55:00.685Z,-6.4
2019-04-10T03:55:52.105Z,-6.4
2019-04-10T03:56:43.017Z,-6.4
2019-04-10T03:57:34.341Z,-6.5
2019-04-10T03:58:25.300Z,-6.5
2019-04-10T03:59:16.201Z,-6.6
2019-04-10T04:00:07.077Z,-6.7
2019-04-10T04:00:58.532Z,-6.7
2019-04-10T04:01:49.445Z,-6.9
2019-04-10T04:02:40.387Z,-6.9
2019-04-10T04:03:31.308Z,-7
2019-04-10T04:04:22.183Z,-7
2019-04-10T04:05:13.056Z,-7
2019-04-10T04:06:03.948Z,-6.9
2019-04-10T04:06:55.742Z,-6.9
2019-04-10T04:07:46.777Z,-6.9
2019-04-10T04:08:37.664Z,-6.9
2019-04-10T04:09:29.366Z,-6.9
2019-04-10T04:10:20.507Z,-6.8
2019-04-10T04:11:11.462Z,-6.9
2019-04-10T04:12:02.426Z,-6.9
2019-04-10T04:12:53.310Z,-6.9
2019-04-10T04:13:44.212Z,-6.8
2019-04-10T04:14:35.079Z,-6.7
2019-04-10T04:15:26.156Z,-6.8
2019-04-10T04:16:17.134Z,-6.9
2019-04-10T04:17:08.164Z,-6.9
2019-04-10T04:17:59.053Z,-7
2019-04-10T04:18:49.955Z,-6.9
2019-04-10T04:19:40.825Z,-6.9
2019-04-10T04:20:31.846Z,-6.9
2019-04-10T04:21:23.685Z,-6.9
2019-04-10T04:22:14.696Z,-6.9
2019-04-10T04:23:05.575Z,-6.9
2019-04-10T04:23:57.260Z,-6.9
2019-04-10T04:24:48.250Z,-6.9
2019-04-10T04:25:39.232Z,-7
2019-04-10T04:26:30.172Z,-7
2019-04-10T04:27:21.580Z,-7
2019-04-10T04:28:12.558Z,-7
2019-04-10T04:29:03.598Z,-7
2019-04-10T04:29:55.323Z,-7
2019-04-10T04:30:46.247Z,-6.9
2019-04-10T04:31:37.117Z,-6.9
2019-04-10T04:32:27.985Z,-6.9
2019-04-10T04:33:19.077Z,-7
2019-04-10T04:34:10.107Z,-7.1
2019-04-10T04:35:04.597Z,-7.1
2019-04-10T04:35:55.561Z,-7.1
2019-04-10T04:36:48.761Z,-7.1
2019-04-10T04:37:40.146Z,-7.1
2019-04-10T04:38:34.637Z,-7.2
2019-04-10T04:39:27.245Z,-7.2
2019-04-10T04:40:19.660Z,-7.2
2019-04-10T04:41:11.104Z,-7.2
2019-04-10T04:42:02.962Z,-7.2
2019-04-10T04:42:53.928Z,-7.2
2019-04-10T04:43:46.226Z,-7.1
2019-04-10T04:44:38.252Z,-7.1
2019-04-10T04:45:29.987Z,-7
2019-04-10T04:46:20.910Z,-7
2019-04-10T04:47:11.775Z,-7
2019-04-10T04:48:02.646Z,-7.1
2019-04-10T04:48:54.276Z,-7.1
2019-04-10T04:49:45.271Z,-7.2
2019-04-10T04:50:36.146Z,-7.2
2019-04-10T04:51:27.286Z,-7.2
2019-04-10T04:52:18.344Z,-7.2
2019-04-10T04:53:09.229Z,-7.2
2019-04-10T04:54:00.981Z,-7.2
2019-04-10T04:54:51.940Z,-7.1
2019-04-10T04:55:42.874Z,-7.1
2019-04-10T04:56:33.820Z,-7.1
2019-04-10T04:57:24.698Z,-7.1
2019-04-10T04:58:15.565Z,-7.1
2019-04-10T04:59:06.435Z,-7.1
2019-04-10T04:59:57.370Z,-7.1
2019-04-10T05:00:48.349Z,-7.1
2019-04-10T05:01:40.324Z,-7.1
2019-04-10T05:02:34.768Z,-7
2019-04-10T05:03:26.103Z,-7
2019-04-10T05:04:17.832Z,-6.9
2019-04-10T05:05:08.824Z,-7
2019-04-10T05:06:00.335Z,-6.9
2019-04-10T05:06:52.120Z,-6.9
2019-04-10T05:07:54.052Z,-6.9
2019-04-10T05:08:39.902Z,-6.9
2019-04-10T05:09:35.428Z,-6.8
2019-04-10T05:10:26.691Z,-6.7
2019-04-10T05:11:18.282Z,-6.7
2019-04-10T05:12:09.368Z,-6.7
2019-04-10T05:13:00.285Z,-6.7
2019-04-10T05:13:51.157Z,-6.7
2019-04-10T05:14:42.039Z,-6.6
2019-04-10T05:15:33.232Z,-6.6
2019-04-10T05:16:24.841Z,-6.6
2019-04-10T05:17:17.911Z,-6.6
2019-04-10T05:18:09.072Z,-6.6
2019-04-10T05:18:59.936Z,-6.6
2019-04-10T05:19:50.830Z,-6.5
2019-04-10T05:20:47.003Z,-6.4
2019-04-10T05:21:37.540Z,-6.4
2019-04-10T05:22:28.421Z,-6.3
2019-04-10T05:23:19.295Z,-6.2
2019-04-10T05:24:10.221Z,-6.2
2019-04-10T05:25:01.103Z,-6.1
2019-04-10T05:25:52.001Z,-6.1
2019-04-10T05:26:42.879Z,-6
2019-04-10T05:27:33.767Z,-5.9
2019-04-10T05:28:24.715Z,-5.8
2019-04-10T05:29:15.643Z,-5.7
2019-04-10T05:30:06.518Z,-5.7
2019-04-10T05:30:57.419Z,-5.7
2019-04-10T05:31:48.933Z,-5.6
2019-04-10T05:32:39.868Z,-5.6
2019-04-10T05:33:30.985Z,-5.5
2019-04-10T05:34:22.074Z,-5.5
2019-04-10T05:35:12.959Z,-5.4
2019-04-10T05:36:04.721Z,-5.4
2019-04-10T05:36:56.752Z,-5.4
2019-04-10T05:37:47.845Z,-5.4
2019-04-10T05:38:38.751Z,-5.4
2019-04-10T05:39:39.601Z,-5.3
2019-04-10T05:40:25.963Z,-5.3
2019-04-10T05:41:17.547Z,-5.2
2019-04-10T05:42:08.574Z,-5.2
2019-04-10T05:42:59.617Z,-5.2
2019-04-10T05:43:50.929Z,-5.1
2019-04-10T05:44:42.283Z,-5.1
2019-04-10T05:45:33.837Z,-5
2019-04-10T05:46:25.005Z,-5
2019-04-10T05:47:17.012Z,-4.9
2019-04-10T05:48:08.808Z,-4.9
2019-04-10T05:49:00.073Z,-4.9
2019-04-10T05:49:51.261Z,-4.8
2019-04-10T05:50:52.917Z,-4.7
2019-04-10T05:51:37.995Z,-4.7
2019-04-10T05:52:28.986Z,-4.6
2019-04-10T05:53:24.332Z,-4.6
2019-04-10T05:54:15.451Z,-4.5
2019-04-10T05:55:06.446Z,-4.5
2019-04-10T05:55:57.958Z,-4.4
2019-04-10T05:56:48.906Z,-4.4
2019-04-10T05:57:40.624Z,-4.3
2019-04-10T05:58:31.567Z,-4.3
2019-04-10T05:59:22.436Z,-4.2
2019-04-10T06:00:13.455Z,-4.2
2019-04-10T06:01:05.325Z,-4.2
2019-04-10T06:01:56.810Z,-4.1
2019-04-10T06:02:48.146Z,-4.1
2019-04-10T06:03:39.061Z,-4
2019-04-10T06:04:29.933Z,-3.9
2019-04-10T06:05:20.804Z,-3.9
2019-04-10T06:06:12.503Z,-3.8
2019-04-10T06:07:03.501Z,-3.7
2019-04-10T06:07:54.367Z,-3.7
2019-04-10T06:08:45.247Z,-3.6
2019-04-10T06:09:36.539Z,-3.6
2019-04-10T06:10:27.580Z,-3.5
2019-04-10T06:11:18.446Z,-3.4
2019-04-10T06:12:09.824Z,-2.7
2019-04-10T06:13:00.774Z,-1.8
2019-04-10T06:13:52.707Z,-0.4
2019-04-10T06:14:43.630Z,0.6
2019-04-10T06:15:35.041Z,1.4
2019-04-10T06:16:26.129Z,2.1
2019-04-10T06:17:18.324Z,2.8
2019-04-10T06:18:09.267Z,3.2
2019-04-10T06:19:00.139Z,3.4
2019-04-10T06:19:51.121Z,3.4
2019-04-10T06:20:42.006Z,3.4
2019-04-10T06:21:32.878Z,3.4
2019-04-10T06:22:23.798Z,3.4
2019-04-10T06:23:14.966Z,3.4
2019-04-10T06:24:05.930Z,3.4
2019-04-10T06:24:56.803Z,3.4
2019-04-10T06:25:47.834Z,3.4
2019-04-10T06:26:39.481Z,3.4
2019-04-10T06:27:30.458Z,3.1
2019-04-10T06:28:23.090Z,2.3
2019-04-10T06:29:15.132Z,2.2
2019-04-10T06:30:06.005Z,2.7
2019-04-10T06:30:56.876Z,3.5
2019-04-10T06:31:47.763Z,3.5
2019-04-10T06:32:39.693Z,3.5
2019-04-10T06:33:31.738Z,3.5
2019-04-10T06:34:22.716Z,3.6
2019-04-10T06:35:13.636Z,3.6
2019-04-10T06:36:04.948Z,3.6
2019-04-10T06:36:55.916Z,3.6
2019-04-10T06:37:46.789Z,3.6
2019-04-10T06:38:37.653Z,3.6
2019-04-10T06:39:28.877Z,3.6
2019-04-10T06:40:27.141Z,3.6
2019-04-10T06:41:19.189Z,3.6
2019-04-10T06:42:10.111Z,3.6
2019-04-10T06:43:01.108Z,3.6
2019-04-10T06:43:55.832Z,3.6
2019-04-10T06:44:46.712Z,3.6
2019-04-10T06:45:37.816Z,3.6
2019-04-10T06:46:28.732Z,3.7
2019-04-10T06:47:20.244Z,3.7
2019-04-10T06:48:11.184Z,3.7
2019-04-10T06:49:03.054Z,3.7
2019-04-10T06:49:54.627Z,3.7
2019-04-10T06:50:47.359Z,3.7
2019-04-10T06:51:38.314Z,3.7
2019-04-10T06:52:30.292Z,3.7
2019-04-10T06:53:21.274Z,3.7
2019-04-10T06:54:12.905Z,3.7
2019-04-10T06:55:04.936Z,3.7
2019-04-10T06:55:56.517Z,3.7
2019-04-10T06:56:48.440Z,3.7
2019-04-10T06:57:46.728Z,3.7
2019-04-10T06:58:35.995Z,3.8
2019-04-10T06:59:28.128Z,3.8
2019-04-10T07:00:19.686Z,3.8
2019-04-10T07:01:10.673Z,3.8
2019-04-10T07:02:12.670Z,3.8
2019-04-10T07:02:57.383Z,3.8
2019-04-10T07:03:56.392Z,3.9
2019-04-10T07:04:51.482Z,3.9
2019-04-10T07:05:47.199Z,3.9
2019-04-10T07:06:49.696Z,3.9
2019-04-10T07:07:44.876Z,3.9
2019-04-10T07:08:27.594Z,3.9
2019-04-10T07:09:21.210Z,3.9
2019-04-10T07:10:22.161Z,3.9
2019-04-10T07:11:11.421Z,3.9
2019-04-10T07:12:04.609Z,3.9
2019-04-10T07:12:55.672Z,3.9
2019-04-10T07:13:46.607Z,3.9
2019-04-10T07:14:38.393Z,4
2019-04-10T07:15:29.488Z,4
2019-04-10T07:16:20.358Z,4
2019-04-10T07:17:13.910Z,4
2019-04-10T07:18:05.199Z,4
2019-04-10T07:18:58.355Z,4
2019-04-10T07:19:49.385Z,4.1
2019-04-10T07:20:40.272Z,4.1
2019-04-10T07:21:34.100Z,4.1
2019-04-10T07:22:26.895Z,4.1
2019-04-10T07:23:22.353Z,4.1
2019-04-10T07:24:15.077Z,4.1
2019-04-10T07:25:09.213Z,4.1
2019-04-10T07:26:00.329Z,4.1
2019-04-10T07:26:51.223Z,4.1
2019-04-10T07:27:42.119Z,4.1
2019-04-10T07:28:33.562Z,4.1
2019-04-10T07:29:27.619Z,4.2
2019-04-10T07:30:19.435Z,4.2
2019-04-10T07:31:11.531Z,4.2
2019-04-10T07:32:04.852Z,4.2
2019-04-10T07:32:59.244Z,4.2
2019-04-10T07:33:51.889Z,4.2
2019-04-10T07:34:43.113Z,4.2
2019-04-10T07:35:35.407Z,4.2
2019-04-10T07:36:26.712Z,4.2
2019-04-10T07:37:20.782Z,4.2
2019-04-10T07:38:12.195Z,4.2
2019-04-10T07:39:03.415Z,4.3
2019-04-10T07:39:55.133Z,4.3
2019-04-10T07:40:46.981Z,4.3
2019-04-10T07:41:37.977Z,4.3
2019-04-10T07:42:34.335Z,4.3
2019-04-10T07:43:27.407Z,4.3
2019-04-10T07:44:18.481Z,4.3
2019-04-10T07:45:09.353Z,4.3
2019-04-10T07:46:00.220Z,4.3
2019-04-10T07:46:51.089Z,4.3
2019-04-10T07:47:42.143Z,4.3
2019-04-10T07:48:33.503Z,4.4
2019-04-10T07:49:27.494Z,4.4
2019-04-10T07:50:20.499Z,4.4
2019-04-10T07:51:11.431Z,4.4
2019-04-10T07:52:05.411Z,4.4
2019-04-10T07:52:57.498Z,4.4
2019-04-10T07:53:49.160Z,4.4
2019-04-10T07:54:41.985Z,4.4
2019-04-10T07:55:34.035Z,4.5
2019-04-10T07:56:24.934Z,4.5
2019-04-10T07:57:16.078Z,4.5
2019-04-10T07:58:07.013Z,4.5
2019-04-10T07:58:57.890Z,4.5
2019-04-10T07:59:49.678Z,4.6
2019-04-10T08:00:40.783Z,4.6
2019-04-10T08:01:31.684Z,4.6
2019-04-10T08:02:23.286Z,4.6
2019-04-10T08:03:14.629Z,4.5
2019-04-10T08:04:06.266Z,4.6
2019-04-10T08:04:57.923Z,4.6
2019-04-10T08:05:48.850Z,4.6
2019-04-10T08:06:39.712Z,4.6
2019-04-10T08:07:34.470Z,4.6
2019-04-10T08:08:25.762Z,4.6
2019-04-10T08:09:16.766Z,4.6
2019-04-10T08:10:07.946Z,4.6
2019-04-10T08:10:59.441Z,4.6
2019-04-10T08:11:50.978Z,4.6
2019-04-10T08:12:47.275Z,4.6
2019-04-10T08:13:38.494Z,4.6
2019-04-10T08:14:29.523Z,4.6
2019-04-10T08:15:20.977Z,4.6
2019-04-10T08:16:11.920Z,4.6
2019-04-10T08:17:03.742Z,4.6
2019-04-10T08:17:54.710Z,4.6
2019-04-10T08:18:45.727Z,4.6
2019-04-10T08:19:36.979Z,4.7
2019-04-10T08:20:28.493Z,4.7
2019-04-10T08:21:19.754Z,4.7
2019-04-10T08:22:10.689Z,4.7
2019-04-10T08:23:01.661Z,4.7
2019-04-10T08:23:53.026Z,4.7
2019-04-10T08:24:46.065Z,4.8
2019-04-10T08:25:38.753Z,4.8
2019-04-10T08:26:30.396Z,4.9
2019-04-10T08:27:21.420Z,4.9
2019-04-10T08:28:12.380Z,4.9
2019-04-10T08:29:03.281Z,4.9
2019-04-10T08:29:54.779Z,5
2019-04-10T08:30:45.681Z,5
2019-04-10T08:31:37.358Z,5
2019-04-10T08:32:28.260Z,5.1
2019-04-10T08:33:19.522Z,5.1
2019-04-10T08:34:10.969Z,5.1
2019-04-10T08:35:01.940Z,5.1
2019-04-10T08:35:52.808Z,5.1
2019-04-10T08:36:43.808Z,5.1
2019-04-10T08:37:34.862Z,5.1
2019-04-10T08:38:25.947Z,5.1
2019-04-10T08:39:28.075Z,5.1
2019-04-10T08:40:13.493Z,5.1
2019-04-10T08:41:05.111Z,5
2019-04-10T08:41:56.066Z,5
2019-04-10T08:42:47.602Z,5
2019-04-10T08:43:39.542Z,5
2019-04-10T08:44:30.851Z,5
2019-04-10T08:45:22.543Z,5
2019-04-10T08:46:13.421Z,5
2019-04-10T08:47:04.289Z,5
2019-04-10T08:47:55.172Z,5
2019-04-10T08:48:46.091Z,5
2019-04-10T08:49:36.968Z,5
2019-04-10T08:50:28.081Z,5
2019-04-10T08:51:19.224Z,5
2019-04-10T08:52:10.425Z,5
2019-04-10T08:53:02.073Z,5.1
2019-04-10T08:53:54.970Z,5.1
2019-04-10T08:54:46.557Z,5.1
2019-04-10T08:55:37.848Z,5.1
2019-04-10T08:56:28.780Z,5.1
2019-04-10T08:57:19.759Z,5.1
2019-04-10T08:58:10.672Z,5.2
2019-04-10T08:59:01.586Z,5.2
2019-04-10T08:59:52.467Z,5.2
2019-04-10T09:00:43.331Z,5.3
2019-04-10T09:01:34.207Z,5.3
2019-04-10T09:02:26.175Z,5.4
2019-04-10T09:03:17.105Z,5.4
2019-04-10T09:04:07.973Z,5.4
2019-04-10T09:04:59.433Z,5.4
2019-04-10T09:05:51.072Z,5.5
2019-04-10T09:06:42.018Z,5.5
2019-04-10T09:07:32.885Z,5.6
2019-04-10T09:08:24.567Z,5.6
2019-04-10T09:09:15.579Z,5.6
2019-04-10T09:10:06.490Z,5.6
2019-04-10T09:10:57.356Z,5.6
2019-04-10T09:11:49.301Z,5.6
2019-04-10T09:12:41.120Z,5.6
2019-04-10T09:13:32.665Z,5.6
2019-04-10T09:14:23.583Z,5.6
2019-04-10T09:15:14.619Z,5.6
2019-04-10T09:16:06.562Z,5.6
2019-04-10T09:16:58.525Z,5.6
2019-04-10T09:17:49.473Z,5.6
2019-04-10T09:18:41.196Z,5.7
2019-04-10T09:19:32.127Z,5.7
2019-04-10T09:20:23.039Z,5.7
2019-04-10T09:21:13.915Z,5.7
2019-04-10T09:22:05.810Z,5.7
2019-04-10T09:23:15.333Z,5.7
2019-04-10T09:23:54.853Z,5.7
2019-04-10T09:24:46.786Z,5.6
2019-04-10T09:25:37.697Z,5.6
2019-04-10T09:26:28.688Z,5.6
2019-04-10T09:27:19.607Z,5.6
2019-04-10T09:28:10.604Z,5.6
2019-04-10T09:29:02.528Z,5.6
2019-04-10T09:29:54.142Z,5.6
2019-04-10T09:30:46.158Z,5.6
2019-04-10T09:31:37.808Z,5.6
2019-04-10T09:32:28.799Z,5.6
2019-04-10T09:33:23.258Z,5.6
2019-04-10T09:34:15.840Z,5.6
2019-04-10T09:35:06.756Z,5.6
2019-04-10T09:35:57.676Z,5.6
2019-04-10T09:36:49.201Z,5.6
2019-04-10T09:37:40.127Z,5.6
2019-04-10T09:38:31.005Z,5.6
2019-04-10T09:39:21.916Z,5.6
2019-04-10T09:40:13.997Z,5.6
2019-04-10T09:41:05.670Z,5.6
2019-04-10T09:41:56.613Z,5.6
2019-04-10T09:42:47.990Z,5.6
2019-04-10T09:43:39.970Z,5.6
2019-04-10T09:44:31.916Z,5.6
2019-04-10T09:45:24.941Z,5.6
2019-04-10T09:46:16.242Z,5.6
2019-04-10T09:47:07.731Z,5.6
2019-04-10T09:47:58.690Z,5.6
2019-04-10T09:48:49.827Z,5.6
2019-04-10T09:49:44.717Z,5.6
2019-04-10T09:50:36.631Z,5.6
2019-04-10T09:51:27.599Z,5.6
2019-04-10T09:52:18.730Z,5.6
2019-04-10T09:53:10.656Z,5.6
2019-04-10T09:54:01.644Z,5.6
2019-04-10T09:54:53.145Z,5.6
2019-04-10T09:55:44.753Z,5.6
2019-04-10T09:56:36.382Z,5.6
2019-04-10T09:57:27.321Z,5.6
2019-04-10T09:58:18.188Z,5.6
2019-04-10T09:59:09.657Z,5.7
2019-04-10T10:00:01.001Z,5.7
2019-04-10T10:00:52.213Z,5.7
2019-04-10T10:01:44.192Z,5.7
2019-04-10T10:02:35.755Z,5.7
2019-04-10T10:03:26.720Z,5.7
2019-04-10T10:04:17.599Z,5.7
2019-04-10T10:05:08.572Z,5.7
2019-04-10T10:06:00.253Z,5.7
2019-04-10T10:06:51.556Z,5.7
2019-04-10T10:07:43.035Z,5.8
2019-04-10T10:08:33.971Z,5.8
2019-04-10T10:09:25.965Z,5.8
2019-04-10T10:10:17.232Z,5.8
2019-04-10T10:11:08.152Z,5.9
2019-04-10T10:11:59.052Z,5.9
2019-04-10T10:12:50.506Z,5.9
2019-04-10T10:13:41.546Z,5.9
2019-04-10T10:14:33.332Z,6
2019-04-10T10:15:25.241Z,6.1
2019-04-10T10:16:16.936Z,6.1
2019-04-10T10:17:08.567Z,6.2
2019-04-10T10:17:59.517Z,6.2
2019-04-10T10:18:50.385Z,6.2
2019-04-10T10:19:41.251Z,6.3
2019-04-10T10:20:32.171Z,6.4
2019-04-10T10:21:28.320Z,6.4
2019-04-10T10:22:19.261Z,6.4
2019-04-10T10:23:10.152Z,6.5
2019-04-10T10:24:01.026Z,6.6
2019-04-10T10:24:53.009Z,6.6
2019-04-10T10:25:43.973Z,6.6
2019-04-10T10:26:34.866Z,6.6
2019-04-10T10:27:26.774Z,6.6
2019-04-10T10:28:21.504Z,6.6
2019-04-10T10:29:13.332Z,6.6
2019-04-10T10:30:04.258Z,6.6
2019-04-10T10:30:55.711Z,6.6
2019-04-10T10:31:49.285Z,6.5
2019-04-10T10:32:42.080Z,6.6
2019-04-10T10:33:34.045Z,6.6
2019-04-10T10:34:26.036Z,6.6
2019-04-10T10:35:16.961Z,6.6
2019-04-10T10:36:07.829Z,6.5
2019-04-10T10:36:58.726Z,6.4
2019-04-10T10:37:50.460Z,6.4
2019-04-10T10:38:41.389Z,6.4
2019-04-10T10:39:32.268Z,6.4
2019-04-10T10:40:23.426Z,6.4
2019-04-10T10:41:15.133Z,6.3
2019-04-10T10:42:07.275Z,6.2
2019-04-10T10:42:58.439Z,6.2
2019-04-10T10:43:49.319Z,6.2
2019-04-10T10:44:40.465Z,6.2
2019-04-10T10:45:31.380Z,6.2
2019-04-10T10:46:23.067Z,6.2
2019-04-10T10:47:14.037Z,6.2
2019-04-10T10:48:08.283Z,6.2
2019-04-10T10:49:00.060Z,6.2
2019-04-10T10:49:50.993Z,6.1
2019-04-10T10:50:41.864Z,6.1
2019-04-10T10:51:33.013Z,6.1
2019-04-10T10:52:23.923Z,6.1
2019-04-10T10:53:14.791Z,6
2019-04-10T10:54:05.727Z,5.9
2019-04-10T10:54:56.934Z,5.9
2019-04-10T10:55:50.965Z,5.9
2019-04-10T10:56:42.556Z,5.8
2019-04-10T10:57:33.529Z,5.9
2019-04-10T10:58:24.396Z,5.9
2019-04-10T10:59:15.524Z,5.9
2019-04-10T11:00:06.433Z,5.8
2019-04-10T11:00:57.719Z,5.7
2019-04-10T11:01:48.656Z,5.7
2019-04-10T11:02:39.551Z,5.7
2019-04-10T11:03:30.421Z,5.7
2019-04-10T11:04:21.286Z,5.7
2019-04-10T11:05:12.730Z,5.7
2019-04-10T11:06:03.665Z,5.7
2019-04-10T11:06:59.935Z,5.7
2019-04-10T11:07:51.476Z,5.6
2019-04-10T11:08:43.802Z,5.6
2019-04-10T11:09:35.900Z,5.6
2019-04-10T11:10:27.718Z,5.6
2019-04-10T11:11:18.596Z,5.6
2019-04-10T11:12:09.617Z,5.6
2019-04-10T11:13:00.543Z,5.6
2019-04-10T11:13:51.419Z,5.6
2019-04-10T11:14:43.580Z,5.6
2019-04-10T11:15:34.542Z,5.7
2019-04-10T11:16:25.413Z,5.7
2019-04-10T11:17:16.281Z,5.7
2019-04-10T11:18:08.354Z,5.8
2019-04-10T11:18:59.320Z,5.7
2019-04-10T11:19:51.260Z,5.8
2019-04-10T11:20:42.247Z,5.8
2019-04-10T11:21:34.491Z,5.9
2019-04-10T11:22:26.399Z,5.9
2019-04-10T11:23:20.205Z,5.9
2019-04-10T11:24:11.171Z,5.8
2019-04-10T11:25:02.082Z,5.8
2019-04-10T11:25:53.833Z,5.7
2019-04-10T11:26:46.326Z,5.7
2019-04-10T11:27:37.209Z,5.7
2019-04-10T11:28:30.146Z,5.7
2019-04-10T11:29:21.949Z,5.8
2019-04-10T11:30:13.280Z,5.9
2019-04-10T11:31:04.637Z,5.9
2019-04-10T11:31:55.657Z,5.9
2019-04-10T11:32:46.546Z,5.9
2019-04-10T11:33:37.444Z,5.9
2019-04-10T11:34:29.196Z,5.9
2019-04-10T11:35:21.632Z,5.9
2019-04-10T11:36:12.663Z,5.9
2019-04-10T11:37:19.034Z,5.9
2019-04-10T11:38:00.950Z,5.9
2019-04-10T11:38:54.843Z,5.9
2019-04-10T11:39:48.033Z,5.9
2019-04-10T11:40:41.346Z,5.9